createdAt,value
2017-10-28T00:00:17.130Z,2.80
2017-10-28T00:02:45.326Z,5.90
2017-10-28T00:05:14.662Z,2.80
2017-10-28T00:07:42.871Z,2.65
2017-10-28T00:10:11.078Z,4.35
2017-10-28T00:12:40.023Z,2.97
2017-10-28T00:15:08.319Z,4.00
2017-10-28T00:17:36.521Z,1.70
2017-10-28T00:20:05.760Z,3.92
2017-10-28T00:22:33.953Z,5.03
2017-10-28T00:25:02.122Z,5.50
2017-10-28T00:27:30.316Z,3.80
2017-10-28T00:29:58.531Z,1.98
2017-10-28T00:32:32.143Z,3.80
2017-10-28T00:35:06.027Z,2.12
2017-10-28T00:37:34.261Z,2.00
2017-10-28T00:40:02.494Z,2.47
2017-10-28T00:42:30.701Z,3.45
2017-10-28T00:44:59.953Z,3.05
2017-10-28T00:47:28.172Z,4.03
2017-10-28T00:52:30.872Z,2.87
2017-10-28T00:54:59.088Z,2.75
2017-10-28T00:57:28.124Z,3.97
2017-10-28T00:59:56.339Z,2.17
2017-10-28T01:02:25.483Z,2.83
2017-10-28T01:04:53.754Z,4.12
2017-10-28T01:07:21.938Z,2.85
2017-10-28T01:09:50.116Z,3.05
2017-10-28T01:12:18.296Z,2.95
2017-10-28T01:14:46.503Z,3.67
2017-10-28T01:17:14.691Z,2.42
2017-10-28T01:19:43.640Z,2.28
2017-10-28T01:22:11.855Z,4.20
2017-10-28T01:24:40.818Z,5.47
2017-10-28T01:27:09.145Z,4.35
2017-10-28T01:29:37.341Z,5.18
2017-10-28T01:32:06.634Z,3.65
2017-10-28T01:34:34.869Z,3.75
2017-10-28T01:37:03.802Z,4.57
2017-10-28T01:39:31.983Z,2.90
2017-10-28T01:42:00.175Z,5.65
2017-10-28T01:44:28.432Z,5.72
2017-10-28T01:46:57.006Z,4.22
2017-10-28T01:49:25.215Z,5.62
2017-10-28T01:51:53.408Z,3.28
2017-10-28T01:54:22.359Z,6.78
2017-10-28T01:56:50.550Z,5.03
2017-10-28T01:59:18.784Z,2.53
2017-10-28T02:01:46.965Z,3.20
2017-10-28T02:04:15.151Z,3.20
2017-10-28T02:06:43.383Z,5.07
2017-10-28T02:09:11.575Z,2.97
2017-10-28T02:11:39.770Z,3.90
2017-10-28T02:14:07.963Z,6.57
2017-10-28T02:16:36.135Z,6.72
2017-10-28T02:19:04.393Z,4.22
2017-10-28T02:21:32.567Z,9.65
2017-10-28T02:24:00.764Z,4.93
2017-10-28T02:26:28.959Z,4.00
2017-10-28T02:28:57.958Z,4.85
2017-10-28T02:31:26.160Z,3.67
2017-10-28T02:33:54.748Z,5.53
2017-10-28T02:36:22.935Z,4.93
2017-10-28T02:38:51.151Z,6.68
2017-10-28T02:41:20.163Z,3.65
2017-10-28T02:43:48.340Z,5.50
2017-10-28T02:46:16.627Z,2.30
2017-10-28T02:48:44.813Z,4.32
2017-10-28T02:51:12.995Z,4.28
2017-10-28T02:53:41.235Z,6.18
2017-10-28T02:56:09.439Z,4.50
2017-10-28T02:58:37.664Z,3.53
2017-10-28T03:01:06.616Z,3.62
2017-10-28T03:03:35.191Z,4.20
2017-10-28T03:06:03.385Z,4.55
2017-10-28T03:08:31.565Z,3.50
2017-10-28T03:11:00.559Z,6.10
2017-10-28T03:13:28.740Z,3.12
2017-10-28T03:15:57.727Z,3.15
2017-10-28T03:18:26.699Z,3.05
2017-10-28T03:20:54.939Z,5.55
2017-10-28T03:23:23.169Z,6.22
2017-10-28T03:25:52.565Z,6.53
2017-10-28T03:28:20.764Z,2.12
2017-10-28T03:30:49.736Z,3.20
2017-10-28T03:33:17.964Z,2.03
2017-10-28T03:35:46.135Z,4.32
2017-10-28T03:38:14.319Z,4.53
2017-10-28T03:40:42.516Z,3.75
2017-10-28T03:43:10.707Z,2.60
2017-10-28T03:45:39.664Z,3.62
2017-10-28T03:48:07.862Z,4.40
2017-10-28T03:50:36.062Z,4.03
2017-10-28T03:53:04.251Z,2.78
2017-10-28T03:55:32.534Z,4.75
2017-10-28T03:58:01.823Z,3.45
2017-10-28T04:00:30.075Z,4.05
2017-10-28T04:02:59.042Z,4.80
2017-10-28T04:05:27.225Z,2.87
2017-10-28T04:07:55.475Z,3.45
2017-10-28T04:10:23.672Z,6.65
2017-10-28T04:12:51.827Z,3.10
2017-10-28T04:15:19.998Z,4.20
2017-10-28T04:17:48.179Z,5.25
2017-10-28T04:20:16.650Z,5.62
2017-10-28T04:22:45.093Z,3.65
2017-10-28T04:25:13.371Z,5.18
2017-10-28T04:27:41.580Z,7.30
2017-10-28T04:30:09.790Z,2.70
2017-10-28T04:32:38.745Z,2.37
2017-10-28T04:35:07.032Z,4.90
2017-10-28T04:37:35.207Z,4.80
2017-10-28T04:40:03.382Z,2.70
2017-10-28T04:42:31.563Z,5.10
2017-10-28T04:45:00.520Z,4.28
2017-10-28T04:47:28.711Z,3.50
2017-10-28T04:49:56.905Z,4.62
2017-10-28T04:52:25.859Z,3.03
2017-10-28T04:54:54.050Z,5.07
2017-10-28T04:57:22.279Z,4.43
2017-10-28T04:59:50.495Z,9.32
2017-10-28T05:02:18.684Z,3.05
2017-10-28T05:04:46.903Z,3.40
2017-10-28T05:07:15.088Z,3.45
2017-10-28T05:09:43.276Z,4.62
2017-10-28T05:12:11.471Z,3.55
2017-10-28T05:14:39.665Z,2.35
2017-10-28T05:17:08.599Z,6.87
2017-10-28T05:19:36.792Z,5.65
2017-10-28T05:22:04.986Z,1.85
2017-10-28T05:24:33.179Z,3.50
2017-10-28T05:27:01.901Z,5.97
2017-10-28T05:29:30.096Z,2.90
2017-10-28T05:31:58.306Z,4.25
2017-10-28T05:34:27.262Z,6.20
2017-10-28T05:36:55.481Z,5.90
2017-10-28T05:39:24.448Z,6.78
2017-10-28T05:41:52.608Z,7.18
2017-10-28T05:44:20.794Z,3.50
2017-10-28T05:46:48.970Z,3.08
2017-10-28T05:49:17.915Z,3.55
2017-10-28T05:51:46.106Z,6.03
2017-10-28T05:54:14.350Z,4.22
2017-10-28T05:56:42.938Z,4.68
2017-10-28T05:59:11.123Z,5.53
2017-10-28T06:01:39.303Z,4.57
2017-10-28T06:04:07.486Z,5.55
2017-10-28T06:06:35.683Z,2.70
2017-10-28T06:09:03.844Z,2.50
2017-10-28T06:11:32.027Z,6.15
2017-10-28T06:14:00.212Z,5.57
2017-10-28T06:16:29.163Z,2.92
2017-10-28T06:18:57.353Z,3.78
2017-10-28T06:21:25.549Z,4.25
2017-10-28T06:23:54.515Z,3.50
2017-10-28T06:26:22.687Z,6.10
2017-10-28T06:28:50.896Z,4.07
2017-10-28T06:31:19.893Z,2.30
2017-10-28T06:33:48.179Z,3.67
2017-10-28T06:36:16.394Z,2.37
2017-10-28T06:38:44.590Z,4.87
2017-10-28T06:41:12.790Z,2.55
2017-10-28T06:43:40.989Z,3.33
2017-10-28T06:46:09.186Z,4.28
2017-10-28T06:48:37.762Z,5.90
2017-10-28T06:51:05.966Z,1.98
2017-10-28T06:53:34.148Z,4.82
2017-10-28T06:56:02.348Z,3.03
2017-10-28T06:58:30.618Z,3.22
2017-10-28T07:00:58.832Z,3.83
2017-10-28T07:03:27.026Z,7.93
2017-10-28T07:05:55.558Z,4.68
2017-10-28T07:08:23.827Z,5.53
2017-10-28T07:10:51.994Z,5.30
2017-10-28T07:13:20.178Z,5.87
2017-10-28T07:15:49.135Z,2.78
2017-10-28T07:18:17.332Z,5.35
2017-10-28T07:20:45.517Z,7.93
2017-10-28T07:23:13.711Z,3.85
2017-10-28T07:25:41.909Z,8.35
2017-10-28T07:28:10.116Z,3.55
2017-10-28T07:30:39.031Z,4.75
2017-10-28T07:33:07.231Z,7.90
2017-10-28T07:35:35.434Z,4.05
2017-10-28T07:38:03.635Z,3.65
2017-10-28T07:40:31.826Z,7.15
2017-10-28T07:43:00.020Z,4.90
2017-10-28T07:45:28.259Z,5.70
2017-10-28T07:47:56.511Z,6.82
2017-10-28T07:50:25.568Z,5.00
2017-10-28T07:52:53.775Z,4.30
2017-10-28T07:55:22.721Z,4.90
2017-10-28T07:57:50.922Z,3.78
2017-10-28T08:00:19.115Z,6.12
2017-10-28T08:02:48.270Z,4.05
2017-10-28T08:05:16.455Z,4.18
2017-10-28T08:07:44.679Z,5.47
2017-10-28T08:10:12.971Z,4.87
2017-10-28T08:12:41.158Z,6.60
2017-10-28T08:15:09.675Z,10.20
2017-10-28T08:17:37.863Z,5.40
2017-10-28T08:20:06.858Z,3.53
2017-10-28T08:22:35.825Z,4.72
2017-10-28T08:25:04.003Z,8.15
2017-10-28T08:27:32.435Z,5.70
2017-10-28T08:30:00.673Z,4.10
2017-10-28T08:32:29.616Z,3.45
2017-10-28T08:34:57.834Z,3.50
2017-10-28T08:37:26.790Z,5.32
2017-10-28T08:39:55.064Z,6.28
2017-10-28T08:42:23.260Z,3.55
2017-10-28T08:44:51.457Z,6.82
2017-10-28T08:47:20.408Z,6.40
2017-10-28T08:49:48.593Z,4.30
2017-10-28T08:52:16.817Z,5.03
2017-10-28T08:54:45.039Z,6.00
2017-10-28T08:57:13.231Z,4.95
2017-10-28T08:59:42.203Z,4.82
2017-10-28T09:02:10.375Z,4.78
2017-10-28T09:04:38.644Z,4.32
2017-10-28T09:07:06.829Z,4.32
2017-10-28T09:09:35.024Z,6.07
2017-10-28T09:12:04.014Z,5.97
2017-10-28T09:14:33.008Z,4.00
2017-10-28T09:17:03.852Z,4.37
2017-10-28T09:19:32.795Z,4.37
2017-10-28T09:22:00.992Z,3.30
2017-10-28T09:24:29.881Z,5.68
2017-10-28T09:26:58.100Z,5.82
2017-10-28T09:29:26.453Z,4.75
2017-10-28T09:31:54.649Z,5.80
2017-10-28T09:34:22.836Z,10.38
2017-10-28T09:36:52.231Z,6.12
2017-10-28T09:39:20.435Z,3.28
2017-10-28T09:41:48.990Z,3.65
2017-10-28T09:44:17.190Z,5.53
2017-10-28T09:46:45.394Z,6.15
2017-10-28T09:49:13.562Z,7.95
2017-10-28T09:51:42.156Z,6.82
2017-10-28T09:54:11.106Z,6.22
2017-10-28T09:56:39.312Z,3.80
2017-10-28T09:59:07.482Z,4.47
2017-10-28T10:01:36.547Z,12.80
2017-10-28T10:04:04.741Z,8.68
2017-10-28T10:06:32.926Z,6.62
2017-10-28T10:09:01.187Z,5.53
2017-10-28T10:11:29.542Z,5.80
2017-10-28T10:13:58.144Z,9.23
2017-10-28T10:16:26.335Z,7.22
2017-10-28T10:18:55.691Z,12.05
2017-10-28T10:21:23.916Z,6.93
2017-10-28T10:23:52.919Z,5.70
2017-10-28T10:26:21.891Z,8.85
2017-10-28T10:28:50.102Z,8.00
2017-10-28T10:31:18.296Z,7.10
2017-10-28T10:33:47.148Z,6.60
2017-10-28T10:36:16.148Z,8.75
2017-10-28T10:38:44.357Z,4.50
2017-10-28T10:41:12.568Z,10.25
2017-10-28T10:43:41.597Z,9.05
2017-10-28T10:46:09.808Z,9.27
2017-10-28T10:48:37.985Z,8.30
2017-10-28T10:51:06.183Z,6.80
2017-10-28T10:53:35.258Z,7.20
2017-10-28T10:56:04.116Z,7.97
2017-10-28T10:58:32.335Z,8.18
2017-10-28T11:01:00.543Z,7.80
2017-10-28T11:03:28.751Z,8.43
2017-10-28T11:05:56.966Z,7.32
2017-10-28T11:08:25.910Z,7.65
2017-10-28T11:10:54.195Z,7.75
2017-10-28T11:13:22.416Z,6.93
2017-10-28T11:15:51.400Z,7.07
2017-10-28T11:18:20.383Z,7.93
2017-10-28T11:20:48.600Z,9.52
2017-10-28T11:23:16.813Z,8.98
2017-10-28T11:25:45.007Z,8.93
2017-10-28T11:28:13.998Z,14.25
2017-10-28T11:30:43.406Z,7.80
2017-10-28T11:33:12.549Z,6.75
2017-10-28T11:35:40.746Z,8.43
2017-10-28T11:38:08.931Z,9.27
2017-10-28T11:40:37.141Z,10.57
2017-10-28T11:43:05.373Z,9.40
2017-10-28T11:45:33.660Z,8.85
2017-10-28T11:48:01.848Z,12.50
2017-10-28T11:50:30.880Z,11.55
2017-10-28T11:52:59.116Z,10.23
2017-10-28T11:55:28.532Z,8.25
2017-10-28T11:57:56.789Z,9.82
2017-10-28T12:00:25.745Z,7.62
2017-10-28T12:02:56.728Z,11.90
2017-10-28T12:05:25.698Z,9.88
2017-10-28T12:07:53.948Z,12.73
2017-10-28T12:10:22.145Z,11.12
2017-10-28T12:12:50.407Z,13.48
2017-10-28T12:15:18.669Z,7.10
2017-10-28T12:18:31.018Z,7.90
2017-10-28T12:24:15.402Z,13.10
2017-10-28T12:26:50.777Z,11.88
2017-10-28T12:29:20.312Z,10.95
2017-10-28T12:31:59.537Z,7.62
2017-10-28T12:35:08.670Z,11.15
2017-10-28T12:37:36.941Z,14.32
2017-10-28T12:40:05.082Z,9.38
2017-10-28T12:42:33.282Z,10.93
2017-10-28T12:45:01.451Z,14.05
2017-10-28T12:47:29.636Z,11.12
2017-10-28T12:49:57.819Z,12.60
2017-10-28T12:52:25.998Z,9.90
2017-10-28T12:54:54.569Z,8.98
2017-10-28T12:57:22.752Z,11.65
2017-10-28T12:59:50.938Z,10.82
2017-10-28T13:02:19.169Z,8.20
2017-10-28T13:04:48.121Z,10.75
2017-10-28T13:07:17.073Z,18.42
2017-10-28T13:09:45.274Z,17.83
2017-10-28T13:12:14.247Z,9.77
2017-10-28T13:14:42.450Z,14.07
2017-10-28T13:17:11.391Z,12.75
2017-10-28T13:19:39.619Z,10.00
2017-10-28T13:22:07.829Z,13.57
2017-10-28T13:24:36.030Z,11.35
2017-10-28T13:27:04.206Z,16.40
2017-10-28T13:29:32.418Z,10.68
2017-10-28T13:32:00.596Z,12.77
2017-10-28T13:34:28.906Z,16.98
2017-10-28T13:36:58.094Z,15.68
2017-10-28T13:39:26.303Z,9.77
2017-10-28T13:41:54.481Z,14.70
2017-10-28T13:44:22.650Z,13.23
2017-10-28T13:46:50.840Z,15.43
2017-10-28T13:49:19.815Z,12.73
2017-10-28T13:51:47.969Z,10.50
2017-10-28T13:54:16.153Z,13.32
2017-10-28T13:56:44.340Z,11.93
2017-10-28T13:59:12.533Z,13.27
2017-10-28T14:01:41.471Z,10.35
2017-10-28T14:04:09.664Z,14.63
2017-10-28T14:06:37.903Z,11.60
2017-10-28T14:09:06.091Z,14.90
2017-10-28T14:11:35.052Z,7.05
2017-10-28T14:14:03.246Z,11.77
2017-10-28T14:16:31.780Z,10.63
2017-10-28T14:19:00.730Z,16.50
2017-10-28T14:21:28.935Z,12.45
2017-10-28T14:23:57.927Z,14.07
2017-10-28T14:26:26.146Z,8.77
2017-10-28T14:28:54.464Z,12.43
2017-10-28T14:31:22.667Z,12.27
2017-10-28T14:33:50.912Z,14.95
2017-10-28T14:36:19.158Z,10.65
2017-10-28T14:38:47.359Z,9.43
2017-10-28T14:41:15.540Z,10.60
2017-10-28T14:43:43.755Z,12.23
2017-10-28T14:46:12.099Z,13.20
2017-10-28T14:48:41.054Z,15.63
2017-10-28T14:51:09.258Z,13.38
2017-10-28T14:53:37.501Z,15.82
2017-10-28T14:56:05.723Z,14.57
2017-10-28T14:58:34.671Z,12.23
2017-10-28T15:01:02.846Z,10.23
2017-10-28T15:03:31.054Z,10.80
2017-10-28T15:06:00.090Z,8.68
2017-10-28T15:08:28.362Z,10.20
2017-10-28T15:10:56.566Z,11.20
2017-10-28T15:13:24.866Z,11.40
2017-10-28T15:15:53.065Z,16.73
2017-10-28T15:18:21.282Z,9.45
2017-10-28T15:23:23.870Z,12.37
2017-10-28T15:25:52.047Z,7.20
2017-10-28T15:28:20.235Z,13.90
2017-10-28T15:30:48.450Z,6.75
2017-10-28T15:33:16.655Z,6.57
2017-10-28T15:35:44.858Z,12.48
2017-10-28T15:38:13.081Z,12.82
2017-10-28T15:40:41.275Z,9.50
2017-10-28T15:43:09.470Z,8.13
2017-10-28T15:45:37.658Z,8.70
2017-10-28T15:48:06.232Z,7.15
2017-10-28T15:50:34.402Z,7.37
2017-10-28T15:53:02.594Z,8.35
2017-10-28T15:55:30.804Z,5.82
2017-10-28T15:57:58.982Z,6.65
2017-10-28T16:00:27.178Z,5.65
2017-10-28T16:02:55.371Z,6.40
2017-10-28T16:05:23.558Z,5.70
2017-10-28T16:07:51.740Z,5.70
2017-10-28T16:10:20.671Z,8.95
2017-10-28T16:12:48.879Z,10.02
2017-10-28T16:15:17.066Z,5.90
2017-10-28T16:17:45.229Z,8.52
2017-10-28T16:20:13.406Z,5.70
2017-10-28T16:22:41.640Z,8.18
2017-10-28T16:25:10.110Z,5.95
2017-10-28T16:27:38.311Z,6.05
2017-10-28T16:30:06.486Z,7.00
2017-10-28T16:32:34.668Z,5.10
2017-10-28T16:35:02.891Z,6.90
2017-10-28T16:37:31.098Z,7.10
2017-10-28T16:39:59.286Z,6.70
2017-10-28T16:42:27.491Z,6.62
2017-10-28T16:44:56.434Z,8.30
2017-10-28T16:47:24.646Z,6.78
2017-10-28T16:49:52.854Z,14.35
2017-10-28T16:52:21.068Z,4.50
2017-10-28T16:54:49.298Z,4.60
2017-10-28T16:57:17.519Z,5.47
2017-10-28T16:59:45.757Z,4.43
2017-10-28T17:02:13.934Z,3.78
2017-10-28T17:04:42.131Z,4.40
2017-10-28T17:07:10.312Z,3.85
2017-10-28T17:09:38.492Z,6.78
2017-10-28T17:12:06.673Z,4.55
2017-10-28T17:14:34.881Z,4.03
2017-10-28T17:17:03.868Z,6.25
2017-10-28T17:19:32.826Z,3.85
2017-10-28T17:22:01.043Z,2.50
2017-10-28T17:24:29.220Z,4.22
2017-10-28T17:26:57.429Z,4.87
2017-10-28T17:29:25.624Z,4.72
2017-10-28T17:31:53.872Z,3.65
2017-10-28T17:34:22.075Z,2.97
2017-10-28T17:36:50.288Z,4.47
2017-10-28T17:39:18.468Z,4.70
2017-10-28T17:41:46.640Z,5.28
2017-10-28T17:44:14.814Z,4.37
2017-10-28T17:46:43.006Z,3.95
2017-10-28T17:49:11.184Z,2.55
2017-10-28T17:51:39.358Z,3.25
2017-10-28T17:54:07.565Z,4.72
2017-10-28T17:56:35.740Z,4.45
2017-10-28T17:59:03.942Z,2.70
2017-10-28T18:01:32.147Z,4.35
2017-10-28T18:04:00.335Z,5.03
2017-10-28T18:06:28.517Z,2.60
2017-10-28T18:08:56.704Z,4.25
2017-10-28T18:11:24.898Z,3.67
2017-10-28T18:13:53.847Z,2.20
2017-10-28T18:16:22.045Z,3.78
2017-10-28T18:18:50.235Z,1.98
2017-10-28T18:21:19.271Z,2.08
2017-10-28T18:23:47.520Z,5.95
2017-10-28T18:26:15.751Z,1.87
2017-10-28T18:28:43.930Z,5.35
2017-10-28T18:31:12.101Z,1.95
2017-10-28T18:33:40.282Z,2.05
2017-10-28T18:36:08.479Z,2.55
2017-10-28T18:38:37.434Z,1.65
2017-10-28T18:41:05.617Z,2.20
2017-10-28T18:43:33.875Z,2.87
2017-10-28T18:46:02.082Z,3.85
2017-10-28T18:48:31.030Z,3.15
2017-10-28T18:50:59.330Z,1.60
2017-10-28T18:53:27.509Z,2.78
2017-10-28T18:55:55.699Z,2.40
2017-10-28T18:58:23.936Z,1.65
2017-10-28T19:00:52.138Z,2.20
2017-10-28T19:03:21.127Z,1.50
2017-10-28T19:05:50.092Z,2.97
2017-10-28T19:08:18.266Z,1.75
2017-10-28T19:10:46.468Z,1.77
2017-10-28T19:13:15.886Z,2.28
2017-10-28T19:15:44.075Z,4.07
2017-10-28T19:18:12.277Z,3.00
2017-10-28T19:20:40.460Z,1.90
2017-10-28T19:23:08.647Z,3.75
2017-10-28T19:25:36.845Z,2.60
2017-10-28T19:28:05.023Z,3.15
2017-10-28T19:30:33.960Z,2.33
2017-10-28T19:33:02.187Z,3.05
2017-10-28T19:35:30.384Z,2.15
2017-10-28T19:37:58.568Z,2.10
2017-10-28T19:40:26.778Z,3.58
2017-10-28T19:42:54.983Z,2.75
2017-10-28T19:45:23.180Z,2.67
2017-10-28T19:47:51.378Z,3.17
2017-10-28T19:50:19.567Z,2.83
2017-10-28T19:52:47.768Z,3.30
2017-10-28T19:55:16.722Z,2.95
2017-10-28T19:57:44.927Z,2.85
2017-10-28T20:00:13.878Z,4.97
2017-10-28T20:02:42.082Z,3.00
2017-10-28T20:05:10.282Z,5.10
2017-10-28T20:07:38.459Z,3.05
2017-10-28T20:10:06.640Z,3.55
2017-10-28T20:12:34.806Z,1.85
2017-10-28T20:15:03.194Z,2.95
2017-10-28T20:17:31.371Z,2.30
2017-10-28T20:19:59.576Z,4.00
2017-10-28T20:22:27.750Z,2.90
2017-10-28T20:24:55.990Z,2.42
2017-10-28T20:27:24.161Z,3.22
2017-10-28T20:29:52.335Z,3.45
2017-10-28T20:32:20.521Z,3.42
2017-10-28T20:34:48.775Z,3.10
2017-10-28T20:37:16.979Z,2.58
2017-10-28T20:39:45.152Z,4.10
2017-10-28T20:42:13.384Z,4.15
2017-10-28T20:44:41.580Z,10.48
2017-10-28T20:47:09.815Z,4.47
2017-10-28T20:49:38.768Z,2.75
2017-10-28T20:52:06.954Z,4.45
2017-10-28T20:54:35.159Z,5.40
2017-10-28T20:57:03.595Z,5.15
2017-10-28T20:59:31.815Z,3.60
2017-10-28T21:02:00.786Z,4.90
2017-10-28T21:04:29.015Z,4.87
2017-10-28T21:06:57.242Z,7.32
2017-10-28T21:09:26.198Z,10.40
2017-10-28T21:11:54.381Z,7.10
2017-10-28T21:14:22.572Z,6.28
2017-10-28T21:16:50.783Z,10.80
2017-10-28T21:19:19.027Z,6.87
2017-10-28T21:21:47.253Z,5.57
2017-10-28T21:24:15.492Z,4.57
2017-10-28T21:26:44.504Z,7.50
2017-10-28T21:29:12.812Z,6.80
2017-10-28T21:31:41.222Z,7.75
2017-10-28T21:34:09.414Z,8.55
2017-10-28T21:36:38.375Z,5.12
2017-10-28T21:39:06.679Z,9.32
2017-10-28T21:41:35.630Z,4.05
2017-10-28T21:44:03.838Z,6.85
2017-10-28T21:46:32.776Z,12.07
2017-10-28T21:49:00.963Z,3.00
2017-10-28T21:51:29.149Z,7.62
2017-10-28T21:53:57.346Z,13.30
2017-10-28T21:56:26.321Z,9.30
2017-10-28T21:58:56.433Z,9.23
2017-10-28T22:01:26.093Z,8.45
2017-10-28T22:03:54.355Z,10.75
2017-10-28T22:06:22.547Z,8.18
2017-10-28T22:08:52.171Z,4.93
2017-10-28T22:11:20.375Z,10.02
2017-10-28T22:13:48.589Z,8.30
2017-10-28T22:16:16.779Z,8.43
2017-10-28T22:18:44.979Z,7.80
2017-10-28T22:21:13.159Z,8.07
2017-10-28T22:23:41.347Z,11.73
2017-10-28T22:26:09.523Z,9.95
2017-10-28T22:28:37.796Z,9.93
2017-10-28T22:31:06.057Z,6.55
2017-10-28T22:33:34.517Z,8.32
2017-10-28T22:36:02.707Z,10.27
2017-10-28T22:38:30.892Z,13.10
2017-10-28T22:40:59.061Z,8.40
2017-10-28T22:43:27.250Z,7.62
2017-10-28T22:45:55.443Z,8.93
2017-10-28T22:48:24.497Z,10.27
2017-10-28T22:50:52.716Z,10.63
2017-10-28T22:53:20.928Z,9.98
2017-10-28T22:55:49.122Z,9.02
2017-10-28T22:58:17.293Z,7.03
2017-10-28T23:00:45.463Z,9.15
2017-10-28T23:03:13.655Z,8.80
2017-10-28T23:05:42.657Z,12.45
2017-10-28T23:08:11.606Z,6.57
2017-10-28T23:10:39.833Z,9.85
2017-10-28T23:13:08.091Z,8.20
2017-10-28T23:15:37.068Z,14.43
2017-10-28T23:18:05.259Z,10.88
2017-10-28T23:20:34.241Z,10.02
2017-10-28T23:23:02.418Z,9.63
2017-10-28T23:25:31.366Z,9.02
2017-10-28T23:27:59.536Z,15.05
2017-10-28T23:30:27.748Z,9.15
2017-10-28T23:32:55.993Z,9.68
2017-10-28T23:35:24.949Z,10.85
2017-10-28T23:37:53.104Z,9.35
2017-10-28T23:40:22.038Z,8.10
2017-10-28T23:42:50.219Z,14.87
2017-10-28T23:45:18.408Z,11.80
2017-10-28T23:47:46.648Z,10.27
2017-10-28T23:50:14.845Z,8.40
2017-10-28T23:52:43.046Z,6.82
2017-10-28T23:55:11.256Z,14.87
2017-10-28T23:57:39.461Z,12.80
